Time;durP1;ratioP1;P1;durP2;ratioP2;P2;SDS_P1;SDS_P2;PMS_P1;PMS_P2;Temp;Humidity;BMP_temperature;BMP_pressure;BME280_temperature;BME280_humidity;BME280_pressure;Samples;Min_cycle;Max_cycle;Signal;HPM_P1;HPM_P2
2022/11/12 00:01:27;;;;;;;19.87;17.33;;;;;;;;;;5034034;28;20232;-76
2022/11/12 00:03:54;;;;;;;21.33;17.70;;;;;;;;;;5016914;28;20280;-76
2022/11/12 00:06:20;;;;;;;24.20;18.47;;;;;;;;;;5034476;28;20220;-75
2022/11/12 00:08:46;;;;;;;23.70;18.20;;;;;;;;;;5033988;28;20211;-77
2022/11/12 00:11:12;;;;;;;23.67;18.60;;;;;;;;;;5033916;28;20275;-77
2022/11/12 00:13:38;;;;;;;22.17;17.60;;;;;;;;;;5011644;28;20194;-77
2022/11/12 00:16:04;;;;;;;24.40;18.13;;;;;;;;;;5033985;28;20212;-77
2022/11/12 00:18:30;;;;;;;23.23;18.07;;;;;;;;;;5000762;28;20200;-77
2022/11/12 00:20:56;;;;;;;24.53;18.83;;;;;;;;;;5016310;28;20180;-77
2022/11/12 00:23:22;;;;;;;23.05;19.65;;;;;;;;;;5023164;28;20540;-77
2022/11/12 00:25:57;;;;;;;22.67;17.60;;;;;;;;;;5012925;28;20220;-77
2022/11/12 00:28:23;;;;;;;22.30;17.20;;;;;;;;;;5029832;28;20187;-77
2022/11/12 00:30:49;;;;;;;20.80;17.20;;;;;;;;;;5011359;28;20239;-77
2022/11/12 00:33:15;;;;;;;19.67;17.20;;;;;;;;;;4996564;28;20185;-77
2022/11/12 00:35:41;;;;;;;24.20;17.37;;;;;;;;;;4999826;28;20212;-77
2022/11/12 00:38:07;;;;;;;20.43;16.20;;;;;;;;;;5033706;28;20191;-76
2022/11/12 00:40:33;;;;;;;21.20;16.30;;;;;;;;;;5016284;28;20192;-77
2022/11/12 00:42:59;;;;;;;20.50;16.00;;;;;;;;;;4994470;28;20212;-77
2022/11/12 00:45:25;;;;;;;20.20;15.20;;;;;;;;;;5011368;28;20224;-77
2022/11/12 00:47:55;;;;;;;24.07;16.90;;;;;;;;;;5024621;28;20208;-77
2022/11/12 00:50:21;;;;;;;20.87;16.20;;;;;;;;;;5025974;28;20310;-77
2022/11/12 00:52:47;;;;;;;21.67;16.60;;;;;;;;;;5012815;28;20185;-77
2022/11/12 00:55:13;;;;;;;19.17;15.57;;;;;;;;;;5004784;28;20228;-75
2022/11/12 00:57:39;;;;;;;18.97;16.00;;;;;;;;;;5010064;28;20182;-76
2022/11/12 01:00:06;;;;;;;22.07;15.77;;;;;;;;;;5019107;28;20189;-76
2022/11/12 01:02:33;;;;;;;18.63;15.83;;;;;;;;;;5000383;28;20261;-76
2022/11/12 01:04:59;;;;;;;20.00;15.97;;;;;;;;;;5004426;28;20189;-77
2022/11/12 01:07:25;;;;;;;21.47;15.33;;;;;;;;;;4991632;28;20192;-76
2022/11/12 01:09:51;;;;;;;20.07;15.53;;;;;;;;;;4999553;28;20194;-76
2022/11/12 01:12:17;;;;;;;18.33;14.50;;;;;;;;;;5012522;28;20197;-78
2022/11/12 01:14:43;;;;;;;20.87;15.23;;;;;;;;;;5019604;28;20195;-77
2022/11/12 01:17:09;;;;;;;20.23;14.40;;;;;;;;;;5002270;28;20192;-77
2022/11/12 01:19:35;;;;;;;20.40;15.00;;;;;;;;;;5016458;28;20247;-77
2022/11/12 01:22:01;;;;;;;17.70;15.33;;;;;;;;;;5013859;28;20181;-77
2022/11/12 01:24:27;;;;;;;18.03;14.70;;;;;;;;;;5007921;28;20192;-77
2022/11/12 01:26:53;;;;;;;16.27;13.80;;;;;;;;;;5012431;28;20189;-77
2022/11/12 01:29:19;;;;;;;21.30;14.63;;;;;;;;;;5019271;28;20181;-82
2022/11/12 01:31:45;;;;;;;18.80;14.77;;;;;;;;;;4999764;28;20197;-83
2022/11/12 01:34:11;;;;;;;15.27;13.43;;;;;;;;;;5036992;28;20177;-82
2022/11/12 01:36:38;;;;;;;20.60;14.73;;;;;;;;;;5018102;28;20223;-83
2022/11/12 01:39:07;;;;;;;15.97;13.57;;;;;;;;;;5036361;28;20185;-83
2022/11/12 01:41:34;;;;;;;17.00;13.47;;;;;;;;;;5024572;28;20184;-83
2022/11/12 01:44:07;;;;;;;17.50;13.80;;;;;;;;;;5002122;28;20275;-76
2022/11/12 01:46:34;;;;;;;16.43;13.30;;;;;;;;;;5018780;28;20184;-76
2022/11/12 01:49:02;;;;;;;16.47;13.33;;;;;;;;;;5017586;28;20204;-76
2022/11/12 01:51:32;;;;;;;20.07;14.47;;;;;;;;;;5036239;28;20225;-83
2022/11/12 01:53:59;;;;;;;17.57;13.00;;;;;;;;;;5017461;28;20177;-78
2022/11/12 01:56:27;;;;;;;16.87;12.83;;;;;;;;;;5018494;28;20231;-77
2022/11/12 01:58:56;;;;;;;16.73;14.27;;;;;;;;;;5016864;28;20272;-77
2022/11/12 02:01:22;;;;;;;19.43;14.17;;;;;;;;;;5035718;28;20271;-77
2022/11/12 02:03:48;;;;;;;17.27;13.53;;;;;;;;;;5018880;28;20187;-77
2022/11/12 02:06:14;;;;;;;16.13;13.10;;;;;;;;;;5030258;23;20239;-79
2022/11/12 02:08:40;;;;;;;16.77;13.47;;;;;;;;;;5002276;28;20210;-79
2022/11/12 02:11:12;;;;;;;16.87;13.70;;;;;;;;;;5025018;28;20196;-79
2022/11/12 02:16:23;;;;;;;15.13;12.70;;;;;;;;;;5019794;28;20316;-78
2022/11/12 02:18:49;;;;;;;15.00;13.40;;;;;;;;;;5003871;28;20224;-78
2022/11/12 02:21:23;;;;;;;19.53;13.30;;;;;;;;;;5000328;28;20227;-78
2022/11/12 02:23:59;;;;;;;15.07;13.47;;;;;;;;;;5027331;28;20176;-78
2022/11/12 02:26:26;;;;;;;18.07;13.07;;;;;;;;;;5017023;28;20184;-78
2022/11/12 02:28:52;;;;;;;18.20;13.73;;;;;;;;;;5000389;28;20228;-78
2022/11/12 02:31:18;;;;;;;16.10;13.57;;;;;;;;;;5000881;28;20189;-78
2022/11/12 02:33:44;;;;;;;18.37;13.80;;;;;;;;;;5007426;28;20193;-78
2022/11/12 02:36:10;;;;;;;17.67;13.70;;;;;;;;;;5015060;28;20220;-78
2022/11/12 02:38:36;;;;;;;16.67;13.13;;;;;;;;;;4994716;28;20189;-78
2022/11/12 02:41:02;;;;;;;20.70;13.93;;;;;;;;;;5017149;28;20184;-79
2022/11/12 02:43:28;;;;;;;16.70;13.97;;;;;;;;;;5000852;28;20343;-79
2022/11/12 02:45:54;;;;;;;16.17;13.90;;;;;;;;;;5032806;28;20185;-78
2022/11/12 02:48:20;;;;;;;16.97;14.47;;;;;;;;;;5000165;28;20224;-78
2022/11/12 02:50:47;;;;;;;17.50;13.53;;;;;;;;;;4999274;28;20255;-79
2022/11/12 02:53:13;;;;;;;18.37;14.23;;;;;;;;;;5016361;28;20216;-79
2022/11/12 02:55:39;;;;;;;19.23;13.73;;;;;;;;;;5034261;28;20219;-79
2022/11/12 02:58:05;;;;;;;16.23;13.40;;;;;;;;;;4997000;28;20197;-79
2022/11/12 03:00:31;;;;;;;18.50;13.30;;;;;;;;;;5027330;28;20177;-79
2022/11/12 03:03:00;;;;;;;18.07;13.90;;;;;;;;;;4999688;28;20239;-79
2022/11/12 03:05:31;;;;;;;18.20;13.17;;;;;;;;;;5016418;28;20236;-79
2022/11/12 03:08:01;;;;;;;19.27;12.80;;;;;;;;;;5017110;28;20180;-78
2022/11/12 03:10:28;;;;;;;14.17;12.67;;;;;;;;;;5015891;28;20207;-78
2022/11/12 03:12:56;;;;;;;18.33;13.80;;;;;;;;;;5001111;28;20192;-78
2022/11/12 03:15:22;;;;;;;15.47;12.73;;;;;;;;;;5034316;28;20250;-78
2022/11/12 03:17:48;;;;;;;17.63;13.27;;;;;;;;;;5016366;28;20275;-79
2022/11/12 03:20:14;;;;;;;16.80;13.57;;;;;;;;;;5000478;28;20264;-79
2022/11/12 03:22:40;;;;;;;16.73;13.43;;;;;;;;;;4999607;28;20192;-78
2022/11/12 03:25:07;;;;;;;16.20;12.33;;;;;;;;;;5034097;28;20204;-78
2022/11/12 03:27:33;;;;;;;14.70;13.03;;;;;;;;;;5016004;28;20276;-78
2022/11/12 03:29:59;;;;;;;18.23;12.90;;;;;;;;;;4999552;28;20180;-78
2022/11/12 03:32:25;;;;;;;15.83;13.37;;;;;;;;;;5036140;28;20287;-78
2022/11/12 03:34:51;;;;;;;17.40;12.90;;;;;;;;;;5034013;28;20243;-79
2022/11/12 03:37:17;;;;;;;17.17;12.77;;;;;;;;;;5034134;28;20215;-79
2022/11/12 03:39:43;;;;;;;18.70;12.83;;;;;;;;;;5016445;28;20181;-79
2022/11/12 03:42:09;;;;;;;19.40;16.27;;;;;;;;;;5014947;28;20434;-78
2022/11/12 03:44:35;;;;;;;18.43;13.90;;;;;;;;;;5000707;28;20410;-78
2022/11/12 03:47:01;;;;;;;16.30;13.67;;;;;;;;;;4989105;28;20197;-78
2022/11/12 03:49:27;;;;;;;21.13;13.20;;;;;;;;;;5013632;28;20193;-78
2022/11/12 03:51:53;;;;;;;16.43;13.00;;;;;;;;;;5028312;28;20184;-78
2022/11/12 03:54:19;;;;;;;15.07;13.03;;;;;;;;;;5034340;28;20187;-78
2022/11/12 03:56:45;;;;;;;17.60;13.83;;;;;;;;;;4999941;28;20224;-79
2022/11/12 03:59:11;;;;;;;16.03;13.40;;;;;;;;;;5000768;28;20212;-79
2022/11/12 04:01:37;;;;;;;17.80;13.20;;;;;;;;;;4999897;28;20215;-79
2022/11/12 04:04:03;;;;;;;14.77;12.53;;;;;;;;;;5034214;28;20169;-79
2022/11/12 04:09:13;;;;;;;17.87;12.77;;;;;;;;;;5010529;28;20235;-79
2022/11/12 04:11:39;;;;;;;16.57;13.13;;;;;;;;;;5028960;28;20194;-79
2022/11/12 04:14:05;;;;;;;17.07;12.97;;;;;;;;;;5000189;28;20188;-78
2022/11/12 04:22:02;;;;;;;15.07;12.57;;;;;;;;;;5017592;28;20211;-79
2022/11/12 04:27:20;;;;;;;17.73;12.77;;;;;;;;;;5032391;28;20200;-79
2022/11/12 04:32:33;;;;;;;19.43;14.70;;;;;;;;;;5033598;28;20251;-79
2022/11/12 04:34:59;;;;;;;20.93;14.73;;;;;;;;;;5010315;28;20235;-79
2022/11/12 04:37:27;;;;;;;26.83;15.50;;;;;;;;;;5029104;28;20180;-79
2022/11/12 04:39:53;;;;;;;23.80;15.90;;;;;;;;;;5019290;28;20176;-79
2022/11/12 04:45:08;;;;;;;22.63;15.43;;;;;;;;;;5036990;28;20215;-79
2022/11/12 04:47:35;;;;;;;18.17;13.70;;;;;;;;;;5037204;28;20192;-79
2022/11/12 04:50:03;;;;;;;23.03;15.77;;;;;;;;;;5019101;28;20189;-79
2022/11/12 04:52:30;;;;;;;23.23;16.13;;;;;;;;;;5019323;28;20218;-79
2022/11/12 04:54:56;;;;;;;21.67;15.87;;;;;;;;;;5003687;28;20193;-80
2022/11/12 04:57:23;;;;;;;24.10;16.23;;;;;;;;;;5018220;28;20271;-79
2022/11/12 04:59:49;;;;;;;23.83;16.40;;;;;;;;;;5003146;28;20192;-79
2022/11/12 05:02:16;;;;;;;24.47;16.20;;;;;;;;;;5017869;28;20220;-79
2022/11/12 05:04:42;;;;;;;26.10;17.03;;;;;;;;;;4984806;28;20241;-78
2022/11/12 05:07:08;;;;;;;22.13;15.70;;;;;;;;;;5007844;28;20181;-78
2022/11/12 05:09:34;;;;;;;20.50;15.37;;;;;;;;;;5012656;28;20268;-78
2022/11/12 05:12:00;;;;;;;19.20;14.63;;;;;;;;;;5019232;28;20192;-78
2022/11/12 05:14:26;;;;;;;21.17;15.57;;;;;;;;;;5018863;28;20192;-78
2022/11/12 05:16:52;;;;;;;21.67;15.20;;;;;;;;;;5017038;28;20227;-78
2022/11/12 05:19:18;;;;;;;20.93;15.53;;;;;;;;;;5013453;28;20188;-78
2022/11/12 05:24:30;;;;;;;20.60;14.87;;;;;;;;;;5027093;28;20243;-79
2022/11/12 05:26:56;;;;;;;18.53;14.20;;;;;;;;;;5014497;28;20199;-79
2022/11/12 05:29:22;;;;;;;19.23;13.97;;;;;;;;;;4996911;28;20184;-79
2022/11/12 05:31:48;;;;;;;18.40;14.53;;;;;;;;;;5010586;28;20279;-81
2022/11/12 05:34:14;;;;;;;22.50;15.20;;;;;;;;;;5032452;28;20208;-79
2022/11/12 05:36:40;;;;;;;17.87;14.30;;;;;;;;;;4990457;28;20299;-80
2022/11/12 05:39:06;;;;;;;16.30;13.47;;;;;;;;;;5031934;28;20235;-80
2022/11/12 05:41:32;;;;;;;15.87;13.20;;;;;;;;;;5019056;28;20205;-80
2022/11/12 05:43:58;;;;;;;17.80;14.10;;;;;;;;;;5007967;28;20208;-80
2022/11/12 05:46:24;;;;;;;17.80;13.87;;;;;;;;;;5005728;28;20287;-80
2022/11/12 05:48:50;;;;;;;16.87;13.70;;;;;;;;;;5012961;28;20188;-80
2022/11/12 05:51:16;;;;;;;16.23;13.80;;;;;;;;;;5010889;28;20193;-80
2022/11/12 05:53:42;;;;;;;17.17;13.83;;;;;;;;;;5012347;28;20181;-80
2022/11/12 05:56:08;;;;;;;14.53;12.50;;;;;;;;;;5008829;28;20217;-80
2022/11/12 05:58:35;;;;;;;16.27;13.40;;;;;;;;;;5008129;28;20185;-79
2022/11/12 06:01:01;;;;;;;17.67;13.83;;;;;;;;;;5008145;28;20181;-79
2022/11/12 06:03:27;;;;;;;15.73;12.83;;;;;;;;;;5006962;28;20181;-79
2022/11/12 06:05:53;;;;;;;16.10;13.57;;;;;;;;;;5005640;28;20233;-78
2022/11/12 06:08:19;;;;;;;16.83;13.37;;;;;;;;;;5014743;28;20208;-79
2022/11/12 06:10:49;;;;;;;18.63;13.30;;;;;;;;;;5019008;28;20247;-79
2022/11/12 06:13:15;;;;;;;16.20;12.83;;;;;;;;;;5018564;28;20228;-79
2022/11/12 06:15:41;;;;;;;20.03;13.93;;;;;;;;;;5002825;28;20212;-79
2022/11/12 06:18:07;;;;;;;18.30;13.80;;;;;;;;;;5002021;28;20243;-79
2022/11/12 06:20:33;;;;;;;20.43;13.67;;;;;;;;;;5015144;28;20177;-79
2022/11/12 06:22:59;;;;;;;16.63;13.37;;;;;;;;;;5015057;28;20248;-79
2022/11/12 06:25:25;;;;;;;17.70;14.03;;;;;;;;;;4999251;28;20220;-79
2022/11/12 06:27:52;;;;;;;16.43;13.53;;;;;;;;;;5022396;28;20180;-79
2022/11/12 06:30:18;;;;;;;16.40;13.73;;;;;;;;;;5022705;28;20176;-80
2022/11/12 06:32:47;;;;;;;17.07;13.27;;;;;;;;;;5018624;28;20234;-80
2022/11/12 06:35:14;;;;;;;17.13;13.90;;;;;;;;;;5018351;28;20255;-79
2022/11/12 06:37:40;;;;;;;14.57;13.07;;;;;;;;;;5018770;28;20181;-80
2022/11/12 06:40:06;;;;;;;15.90;12.83;;;;;;;;;;4999681;28;20189;-80
2022/11/12 06:42:32;;;;;;;17.20;13.57;;;;;;;;;;4982887;28;20212;-80
2022/11/12 06:44:58;;;;;;;17.97;13.33;;;;;;;;;;5015254;28;20181;-81
2022/11/12 06:47:24;;;;;;;14.20;12.40;;;;;;;;;;5001517;28;20184;-79
2022/11/12 06:49:50;;;;;;;15.27;13.20;;;;;;;;;;5035304;28;20181;-80
2022/11/12 06:52:16;;;;;;;15.67;13.73;;;;;;;;;;5009184;28;20195;-80
2022/11/12 06:54:42;;;;;;;16.10;13.00;;;;;;;;;;4992907;28;20181;-80
2022/11/12 06:57:09;;;;;;;17.00;12.90;;;;;;;;;;5012392;28;20287;-80
2022/11/12 06:59:35;;;;;;;16.67;13.07;;;;;;;;;;5016465;28;20189;-80
2022/11/12 07:02:01;;;;;;;15.33;12.60;;;;;;;;;;5001127;28;20188;-79
2022/11/12 07:04:27;;;;;;;15.67;13.17;;;;;;;;;;5011312;28;20275;-79
2022/11/12 07:06:53;;;;;;;14.63;12.50;;;;;;;;;;5034840;28;20192;-79
2022/11/12 07:09:19;;;;;;;17.63;13.23;;;;;;;;;;5017343;28;20219;-79
2022/11/12 07:11:45;;;;;;;16.73;13.47;;;;;;;;;;5017835;28;20184;-80
2022/11/12 07:14:11;;;;;;;17.73;14.40;;;;;;;;;;5009393;28;20188;-80
2022/11/12 07:16:37;;;;;;;19.83;14.97;;;;;;;;;;5001192;28;20200;-80
2022/11/12 07:19:03;;;;;;;18.23;15.10;;;;;;;;;;5016779;28;20267;-78
2022/11/12 07:21:29;;;;;;;16.83;14.63;;;;;;;;;;5009267;28;20185;-80
2022/11/12 07:23:55;;;;;;;17.73;14.30;;;;;;;;;;5005062;28;20181;-78
2022/11/12 07:26:22;;;;;;;23.43;20.93;;;;;;;;;;5014563;28;20189;-78
2022/11/12 07:28:49;;;;;;;27.60;24.63;;;;;;;;;;5017213;28;20187;-78
2022/11/12 07:31:16;;;;;;;29.58;25.20;;;;;;;;;;5016383;28;20417;-78
2022/11/12 07:33:43;;;;;;;24.03;19.73;;;;;;;;;;5025805;28;20188;-78
2022/11/12 07:36:10;;;;;;;21.07;18.13;;;;;;;;;;5011817;28;20240;-78
2022/11/12 07:38:37;;;;;;;18.47;15.93;;;;;;;;;;5031400;28;20255;-78
2022/11/12 07:41:04;;;;;;;19.37;15.97;;;;;;;;;;5011421;28;20188;-78
2022/11/12 07:43:34;;;;;;;20.07;16.37;;;;;;;;;;5015683;28;20177;-78
2022/11/12 07:46:02;;;;;;;18.83;16.10;;;;;;;;;;5013670;28;20184;-77
2022/11/12 07:48:28;;;;;;;22.47;17.33;;;;;;;;;;5034242;28;20230;-77
2022/11/12 07:51:05;;;;;;;18.50;16.50;;;;;;;;;;5034214;28;20188;-77
2022/11/12 07:53:31;;;;;;;20.13;17.20;;;;;;;;;;5016849;28;20180;-78
2022/11/12 07:55:58;;;;;;;23.53;19.20;;;;;;;;;;5011816;28;20289;-78
2022/11/12 07:58:25;;;;;;;21.77;18.13;;;;;;;;;;5036386;28;20306;-78
2022/11/12 08:00:51;;;;;;;23.30;18.30;;;;;;;;;;5023931;28;20318;-78
2022/11/12 08:03:17;;;;;;;21.77;18.17;;;;;;;;;;5016848;28;20260;-78
2022/11/12 08:05:44;;;;;;;24.43;19.57;;;;;;;;;;5016753;28;20228;-79
2022/11/12 08:08:10;;;;;;;22.80;20.40;;;;;;;;;;5028964;28;20494;-80
2022/11/12 08:10:36;;;;;;;26.53;19.80;;;;;;;;;;5009945;28;20193;-79
2022/11/12 08:13:02;;;;;;;19.83;17.73;;;;;;;;;;5000824;28;20485;-79
2022/11/12 08:15:28;;;;;;;20.67;17.98;;;;;;;;;;5015936;28;20441;-79
2022/11/12 08:17:54;;;;;;;17.10;15.30;;;;;;;;;;5034004;28;20175;-79
2022/11/12 08:20:20;;;;;;;17.80;14.50;;;;;;;;;;5021491;28;20167;-79
2022/11/12 08:22:47;;;;;;;16.23;13.33;;;;;;;;;;5033563;28;20179;-78
2022/11/12 08:25:13;;;;;;;15.32;13.27;;;;;;;;;;5013486;28;20476;-77
2022/11/12 08:27:39;;;;;;;14.70;13.20;;;;;;;;;;5024697;28;20419;-77
2022/11/12 08:30:05;;;;;;;13.50;12.25;;;;;;;;;;5005209;28;20455;-77
2022/11/12 08:32:31;;;;;;;13.18;11.80;;;;;;;;;;5015093;28;20469;-77
2022/11/12 08:34:57;;;;;;;11.43;10.30;;;;;;;;;;5033140;28;20187;-77
2022/11/12 08:37:23;;;;;;;11.03;9.83;;;;;;;;;;5001539;28;20220;-77
2022/11/12 08:39:49;;;;;;;10.83;9.40;;;;;;;;;;5010080;28;20343;-78
2022/11/12 08:42:15;;;;;;;9.60;8.60;;;;;;;;;;5026229;28;20188;-79
2022/11/12 08:44:41;;;;;;;11.40;8.70;;;;;;;;;;5032041;28;20184;-79
2022/11/12 08:47:07;;;;;;;11.05;8.73;;;;;;;;;;5014774;28;20489;-79
2022/11/12 08:49:33;;;;;;;9.95;7.72;;;;;;;;;;4999299;28;20501;-79
2022/11/12 08:51:59;;;;;;;8.90;7.25;;;;;;;;;;4995393;28;20411;-79
2022/11/12 08:54:25;;;;;;;8.87;6.97;;;;;;;;;;4996330;28;20435;-80
2022/11/12 08:56:51;;;;;;;8.43;7.20;;;;;;;;;;5027369;28;20489;-80
2022/11/12 08:59:17;;;;;;;8.33;7.17;;;;;;;;;;4999871;28;20287;-81
2022/11/12 09:01:43;;;;;;;8.47;6.83;;;;;;;;;;4996049;28;20235;-81
2022/11/12 09:04:09;;;;;;;8.77;6.87;;;;;;;;;;4996694;28;20217;-81
2022/11/12 09:06:37;;;;;;;9.30;7.63;;;;;;;;;;4996144;28;20416;-80
2022/11/12 09:09:03;;;;;;;9.20;7.20;;;;;;;;;;5012330;28;20432;-80
2022/11/12 09:11:29;;;;;;;23.00;7.90;;;;;;;;;;5021383;28;20177;-80
2022/11/12 09:13:55;;;;;;;13.23;7.10;;;;;;;;;;4999845;28;20189;-80
2022/11/12 09:16:23;;;;;;;9.97;7.70;;;;;;;;;;4999591;28;20239;-80
2022/11/12 09:18:49;;;;;;;11.38;8.43;;;;;;;;;;4997374;28;20437;-81
2022/11/12 09:21:16;;;;;;;11.67;7.73;;;;;;;;;;5019081;28;20188;-81
2022/11/12 09:23:42;;;;;;;8.77;7.77;;;;;;;;;;5003291;28;20177;-81
2022/11/12 09:26:08;;;;;;;10.10;7.43;;;;;;;;;;5019048;28;20271;-81
2022/11/12 09:28:34;;;;;;;9.50;8.33;;;;;;;;;;5002589;28;20193;-81
2022/11/12 09:31:01;;;;;;;8.20;7.50;;;;;;;;;;5002632;28;20323;-81
2022/11/12 09:33:29;;;;;;;9.57;7.87;;;;;;;;;;5019232;28;20211;-81
2022/11/12 09:35:56;;;;;;;10.47;7.60;;;;;;;;;;5013367;28;20250;-81
2022/11/12 09:38:22;;;;;;;7.63;6.93;;;;;;;;;;5018943;28;20176;-81
2022/11/12 09:40:58;;;;;;;9.37;7.80;;;;;;;;;;5018755;28;20184;-81
2022/11/12 09:43:24;;;;;;;9.17;8.03;;;;;;;;;;5018805;28;20250;-81
2022/11/12 09:45:51;;;;;;;10.20;8.30;;;;;;;;;;5018619;28;20216;-81
2022/11/12 09:48:28;;;;;;;10.37;8.30;;;;;;;;;;5036589;28;20187;-81
2022/11/12 09:50:59;;;;;;;9.53;8.53;;;;;;;;;;5018299;28;20204;-80
2022/11/12 09:53:32;;;;;;;9.43;8.20;;;;;;;;;;5018310;28;20212;-80
2022/11/12 09:55:58;;;;;;;8.43;7.53;;;;;;;;;;5018274;28;20313;-80
2022/11/12 09:58:26;;;;;;;8.50;7.60;;;;;;;;;;5002577;28;20188;-80
2022/11/12 10:00:52;;;;;;;8.63;7.50;;;;;;;;;;5018231;28;20185;-80
2022/11/12 10:03:24;;;;;;;7.97;7.17;;;;;;;;;;5018030;28;20271;-80
2022/11/12 10:05:50;;;;;;;9.77;7.70;;;;;;;;;;5018557;28;20288;-81
2022/11/12 10:08:16;;;;;;;7.80;7.00;;;;;;;;;;5035775;28;20235;-81
2022/11/12 10:10:45;;;;;;;7.70;6.90;;;;;;;;;;5018619;28;20177;-81
2022/11/12 10:13:20;;;;;;;9.13;7.10;;;;;;;;;;5017880;28;20184;-82
2022/11/12 10:18:49;;;;;;;9.37;7.50;;;;;;;;;;5035852;28;20199;-82
2022/11/12 10:21:24;;;;;;;8.10;7.30;;;;;;;;;;5014364;28;20192;-82
2022/11/12 10:23:51;;;;;;;7.57;6.83;;;;;;;;;;5014760;28;20276;-82
2022/11/12 10:26:18;;;;;;;7.70;6.90;;;;;;;;;;5015040;28;20192;-81
2022/11/12 10:28:50;;;;;;;7.50;6.37;;;;;;;;;;5034510;28;20198;-82
2022/11/12 10:31:20;;;;;;;7.10;6.50;;;;;;;;;;5017084;28;20173;-82
2022/11/12 10:33:46;;;;;;;7.50;6.80;;;;;;;;;;4998393;28;20288;-82
2022/11/12 10:36:17;;;;;;;7.33;6.63;;;;;;;;;;5025782;28;20204;-82
2022/11/12 10:38:44;;;;;;;7.70;6.90;;;;;;;;;;5016081;28;20209;-81
2022/11/12 10:41:22;;;;;;;7.57;6.50;;;;;;;;;;5029738;28;20279;-81
2022/11/12 10:43:55;;;;;;;8.20;7.27;;;;;;;;;;5008047;28;20185;-81
2022/11/12 10:46:26;;;;;;;7.30;6.60;;;;;;;;;;5008307;28;20197;-81
2022/11/12 10:48:54;;;;;;;7.90;6.93;;;;;;;;;;5006023;28;20189;-81
2022/11/12 10:51:25;;;;;;;8.17;6.50;;;;;;;;;;5008528;28;20188;-81
2022/11/12 10:53:51;;;;;;;6.70;6.00;;;;;;;;;;5017175;28;20177;-81
2022/11/12 10:56:24;;;;;;;8.37;6.50;;;;;;;;;;5001023;28;20216;-82
2022/11/12 10:59:09;;;;;;;6.63;6.03;;;;;;;;;;5017506;28;20192;-82
2022/11/12 11:01:36;;;;;;;8.47;6.47;;;;;;;;;;5001033;28;20273;-82
2022/11/12 11:04:02;;;;;;;6.83;6.10;;;;;;;;;;5001021;28;20181;-82
2022/11/12 11:06:28;;;;;;;7.80;6.23;;;;;;;;;;5011183;28;20221;-82
2022/11/12 11:09:08;;;;;;;8.93;6.93;;;;;;;;;;5007990;28;20196;-82
2022/11/12 11:11:34;;;;;;;7.70;7.00;;;;;;;;;;5017030;28;20194;-82
2022/11/12 11:14:19;;;;;;;7.17;6.57;;;;;;;;;;5016779;28;20187;-82
2022/11/12 11:16:49;;;;;;;7.63;6.80;;;;;;;;;;5017196;28;20240;-82
2022/11/12 11:19:15;;;;;;;10.00;7.30;;;;;;;;;;5034738;28;20181;-81
2022/11/12 11:22:02;;;;;;;8.63;7.10;;;;;;;;;;5000791;28;20181;-81
2022/11/12 11:24:43;;;;;;;8.53;7.10;;;;;;;;;;5003827;28;20315;-81
2022/11/12 11:27:28;;;;;;;7.63;6.97;;;;;;;;;;5013713;28;20192;-81
2022/11/12 11:30:03;;;;;;;9.40;7.70;;;;;;;;;;5014232;28;20185;-81
2022/11/12 11:32:32;;;;;;;15.40;8.00;;;;;;;;;;5018567;28;20239;-81
2022/11/12 11:35:15;;;;;;;40.70;8.83;;;;;;;;;;5034579;28;20172;-82
2022/11/12 11:37:46;;;;;;;11.90;8.10;;;;;;;;;;5017202;28;20204;-82
2022/11/12 11:40:20;;;;;;;8.67;7.87;;;;;;;;;;5016907;28;20202;-82
2022/11/12 11:42:56;;;;;;;9.13;8.23;;;;;;;;;;5016764;28;20188;-82
2022/11/12 11:45:40;;;;;;;9.30;8.43;;;;;;;;;;5016344;28;20305;-81
2022/11/12 11:48:16;;;;;;;9.60;8.70;;;;;;;;;;5016523;28;20180;-80
2022/11/12 11:50:51;;;;;;;9.13;8.23;;;;;;;;;;5034113;28;20172;-80
2022/11/12 11:53:26;;;;;;;11.43;9.73;;;;;;;;;;5016777;28;20183;-80
2022/11/12 11:55:58;;;;;;;9.87;8.60;;;;;;;;;;5015116;28;20298;-80
2022/11/12 11:58:27;;;;;;;9.97;8.97;;;;;;;;;;5034169;28;20176;-80
2022/11/12 12:01:12;;;;;;;9.57;8.67;;;;;;;;;;5016653;28;20177;-81
2022/11/12 12:03:49;;;;;;;10.17;8.80;;;;;;;;;;5016066;28;20188;-82
2022/11/12 12:06:24;;;;;;;12.20;9.03;;;;;;;;;;5016176;28;20232;-82
2022/11/12 12:09:08;;;;;;;10.13;9.13;;;;;;;;;;5016096;28;20191;-82
2022/11/12 12:11:41;;;;;;;9.90;8.90;;;;;;;;;;5016602;28;20196;-82
2022/11/12 12:14:06;;;;;;;9.57;8.50;;;;;;;;;;5016009;28;20180;-81
2022/11/12 12:16:36;;;;;;;9.83;8.83;;;;;;;;;;5016132;28;20212;-81
2022/11/12 12:19:11;;;;;;;9.50;8.60;;;;;;;;;;5016080;28;20177;-80
2022/11/12 12:21:38;;;;;;;9.43;8.60;;;;;;;;;;5015362;28;20298;-81
2022/11/12 12:24:17;;;;;;;10.40;9.30;;;;;;;;;;5013490;28;20181;-79
2022/11/12 12:26:49;;;;;;;9.57;8.67;;;;;;;;;;5031523;28;20216;-80
2022/11/12 12:29:18;;;;;;;10.03;9.13;;;;;;;;;;5014519;28;20246;-80
2022/11/12 12:31:48;;;;;;;13.55;10.40;;;;;;;;;;5032227;28;20592;-80
2022/11/12 12:34:22;;;;;;;10.90;9.90;;;;;;;;;;5030504;28;20429;-79
2022/11/12 12:36:51;;;;;;;10.03;9.07;;;;;;;;;;5015587;28;20291;-79
2022/11/12 12:39:18;;;;;;;10.17;9.17;;;;;;;;;;5011519;28;20165;-79
2022/11/12 12:41:44;;;;;;;9.57;8.67;;;;;;;;;;4998705;28;20214;-79
2022/11/12 12:44:11;;;;;;;9.37;8.47;;;;;;;;;;5033131;28;20176;-79
2022/11/12 12:46:39;;;;;;;10.20;9.10;;;;;;;;;;5013670;28;20429;-79
2022/11/12 12:49:06;;;;;;;10.03;9.03;;;;;;;;;;5015798;28;20215;-79
2022/11/12 12:51:33;;;;;;;10.73;9.00;;;;;;;;;;5032639;28;20180;-81
2022/11/12 12:53:59;;;;;;;11.02;9.45;;;;;;;;;;5012315;28;20517;-81
2022/11/12 12:56:32;;;;;;;11.93;9.07;;;;;;;;;;5018486;28;20283;-81
2022/11/12 12:59:02;;;;;;;9.83;8.83;;;;;;;;;;5017860;28;20188;-81
2022/11/12 13:01:30;;;;;;;10.60;9.43;;;;;;;;;;5018176;28;20204;-81
2022/11/12 13:04:02;;;;;;;14.07;9.57;;;;;;;;;;5019440;28;20230;-81
2022/11/12 13:06:31;;;;;;;11.33;9.50;;;;;;;;;;5019344;28;20286;-81
2022/11/12 13:09:17;;;;;;;11.27;10.03;;;;;;;;;;5019687;28;20203;-80
2022/11/12 13:14:30;;;;;;;13.40;9.73;;;;;;;;;;5037101;28;20195;-80
2022/11/12 13:16:58;;;;;;;13.30;10.10;;;;;;;;;;5033922;28;20229;-80
2022/11/12 13:19:28;;;;;;;13.93;10.97;;;;;;;;;;5008065;28;20227;-80
2022/11/12 13:22:13;;;;;;;12.17;11.00;;;;;;;;;;5036859;28;20181;-80
2022/11/12 13:24:57;;;;;;;13.02;11.73;;;;;;;;;;5018444;28;20409;-79
2022/11/12 13:27:39;;;;;;;12.47;11.33;;;;;;;;;;5018966;28;20191;-79
2022/11/12 13:30:16;;;;;;;12.80;11.47;;;;;;;;;;5036626;28;20235;-79
2022/11/12 13:32:51;;;;;;;12.07;10.87;;;;;;;;;;5019595;28;20184;-79
2022/11/12 13:35:17;;;;;;;13.57;11.60;;;;;;;;;;5018194;28;20489;-80
2022/11/12 13:37:44;;;;;;;13.20;11.10;;;;;;;;;;5018848;28;20196;-79
2022/11/12 13:40:16;;;;;;;11.50;10.30;;;;;;;;;;5002710;28;20184;-79
2022/11/12 13:42:48;;;;;;;13.00;10.90;;;;;;;;;;5019268;28;20183;-81
2022/11/12 13:45:18;;;;;;;11.90;10.80;;;;;;;;;;5036309;28;20183;-81
2022/11/12 13:47:44;;;;;;;12.17;11.00;;;;;;;;;;5002510;28;20187;-81
2022/11/12 13:50:15;;;;;;;12.33;11.10;;;;;;;;;;5018657;28;20180;-81
2022/11/12 13:52:41;;;;;;;11.57;10.40;;;;;;;;;;5018684;28;20177;-81
2022/11/12 13:55:12;;;;;;;12.83;11.37;;;;;;;;;;5018133;28;20426;-82
2022/11/12 13:57:38;;;;;;;13.77;11.60;;;;;;;;;;5018553;28;20420;-80
2022/11/12 14:00:07;;;;;;;12.20;10.80;;;;;;;;;;5018279;28;20177;-80
2022/11/12 14:02:36;;;;;;;11.63;10.52;;;;;;;;;;5036128;28;20510;-80
2022/11/12 14:05:02;;;;;;;11.97;10.37;;;;;;;;;;5017945;28;20221;-82
2022/11/12 14:07:43;;;;;;;12.23;10.40;;;;;;;;;;5018539;28;20276;-81
2022/11/12 14:10:25;;;;;;;11.77;10.67;;;;;;;;;;5018292;28;20183;-81
2022/11/12 14:13:00;;;;;;;12.10;10.80;;;;;;;;;;5016140;28;20227;-79
2022/11/12 14:15:29;;;;;;;12.43;10.70;;;;;;;;;;5014127;28;20196;-80
2022/11/12 14:18:01;;;;;;;11.77;10.57;;;;;;;;;;5018318;28;20272;-80
2022/11/12 14:20:35;;;;;;;11.77;10.43;;;;;;;;;;5049271;22;20271;-76
2022/11/12 14:23:08;;;;;;;13.53;10.23;;;;;;;;;;5018591;28;20172;-76
2022/11/12 14:25:34;;;;;;;12.27;9.37;;;;;;;;;;5035960;28;20176;-76
2022/11/12 14:28:00;;;;;;;10.80;9.70;;;;;;;;;;5002060;28;20185;-76
2022/11/12 14:30:30;;;;;;;11.63;9.73;;;;;;;;;;5000606;28;20441;-76
2022/11/12 14:33:10;;;;;;;11.63;10.10;;;;;;;;;;5034525;28;20425;-78
2022/11/12 14:35:36;;;;;;;10.70;9.70;;;;;;;;;;5034119;28;20441;-77
2022/11/12 14:38:03;;;;;;;10.25;9.35;;;;;;;;;;5016927;28;20480;-78
2022/11/12 14:40:30;;;;;;;10.27;9.32;;;;;;;;;;5016869;28;20425;-77
2022/11/12 14:42:56;;;;;;;9.23;8.43;;;;;;;;;;5035696;28;20255;-84
2022/11/12 14:45:23;;;;;;;9.20;8.20;;;;;;;;;;5000775;28;20300;-84
2022/11/12 14:47:50;;;;;;;9.20;8.30;;;;;;;;;;5017641;28;20183;-75
2022/11/12 14:50:31;;;;;;;9.73;8.03;;;;;;;;;;5035053;28;20177;-76
2022/11/12 14:53:01;;;;;;;12.00;8.47;;;;;;;;;;5017641;28;20192;-76
2022/11/12 14:55:30;;;;;;;12.87;9.60;;;;;;;;;;5033648;28;20200;-78
2022/11/12 14:57:58;;;;;;;10.57;9.52;;;;;;;;;;5015529;28;20426;-78